createdAt,value
2019-04-04T00:01:37.505Z,7.80
2019-04-04T00:04:06.750Z,7.80
2019-04-04T00:06:49.936Z,7.80
2019-04-04T00:09:19.349Z,7.80
2019-04-04T00:11:48.605Z,7.90
2019-04-04T00:14:17.995Z,7.80
2019-04-04T00:16:48.839Z,7.80
2019-04-04T00:19:19.165Z,7.80
2019-04-04T00:21:48.921Z,7.80
2019-04-04T00:24:18.980Z,7.70
2019-04-04T00:26:48.538Z,7.60
2019-04-04T00:29:17.907Z,7.60
2019-04-04T00:31:49.552Z,7.60
2019-04-04T00:34:18.527Z,7.60
2019-04-04T00:36:48.900Z,7.50
2019-04-04T00:39:18.112Z,7.50
2019-04-04T00:41:47.304Z,7.60
2019-04-04T00:44:17.128Z,7.50
2019-04-04T00:46:46.190Z,7.60
2019-04-04T00:49:15.645Z,7.50
2019-04-04T00:51:45.848Z,7.50
2019-04-04T00:54:15.135Z,7.50
2019-04-04T00:56:44.305Z,7.50
2019-04-04T00:59:13.525Z,7.60
2019-04-04T01:01:42.661Z,7.50
2019-04-04T01:04:11.993Z,7.50
2019-04-04T01:06:41.100Z,7.50
2019-04-04T01:09:13.231Z,7.50
2019-04-04T01:11:41.165Z,7.50
2019-04-04T01:14:10.601Z,7.50
2019-04-04T01:16:39.745Z,7.50
2019-04-04T01:19:10.370Z,7.60
2019-04-04T01:21:43.542Z,7.50
2019-04-04T01:24:18.001Z,7.50
2019-04-04T01:26:47.074Z,7.50
2019-04-04T01:29:17.753Z,7.50
2019-04-04T01:31:46.874Z,7.40
2019-04-04T01:34:31.316Z,7.40
2019-04-04T01:37:14.876Z,7.40
2019-04-04T01:39:44.361Z,7.30
2019-04-04T01:42:14.049Z,7.30
2019-04-04T01:44:43.237Z,7.20
2019-04-04T01:47:12.665Z,7.30
2019-04-04T01:49:42.205Z,7.30
2019-04-04T01:52:11.600Z,7.30
2019-04-04T01:54:41.272Z,7.30
2019-04-04T01:57:10.505Z,7.20
2019-04-04T01:59:39.616Z,7.10
2019-04-04T02:02:09.509Z,7.10
2019-04-04T02:16:51.541Z,7.00
2019-04-04T02:39:42.503Z,6.50
2019-04-04T02:51:06.947Z,6.40
2019-04-04T03:10:26.043Z,6.40
2019-04-04T03:14:18.281Z,6.30
2019-04-04T03:17:47.893Z,6.40
2019-04-04T03:21:22.235Z,6.40
2019-04-04T03:28:50.193Z,6.50
2019-04-04T03:32:42.383Z,6.50
2019-04-04T03:36:20.497Z,6.50
2019-04-04T03:43:17.595Z,6.60
2019-04-04T03:46:23.803Z,6.60
2019-04-04T03:54:27.369Z,6.70
2019-04-04T04:05:33.576Z,6.60
2019-04-04T04:12:54.600Z,6.60
2019-04-04T04:20:36.336Z,6.60
2019-04-04T04:28:19.841Z,6.50
2019-04-04T04:32:12.069Z,6.50
2019-04-04T04:43:43.903Z,6.60
2019-04-04T04:59:21.792Z,6.40
2019-04-04T05:22:12.817Z,6.10
2019-04-04T05:26:02.548Z,6.10
2019-04-04T05:29:17.498Z,6.20
2019-04-04T05:36:44.470Z,6.20
2019-04-04T05:52:04.464Z,6.40
2019-04-04T05:59:33.573Z,6.40
2019-04-04T06:18:44.279Z,6.70
2019-04-04T06:22:24.110Z,6.70
2019-04-04T06:29:47.574Z,6.80
2019-04-04T06:49:16.673Z,7.10
2019-04-04T06:54:25.130Z,7.40
2019-04-04T06:56:53.335Z,7.40
2019-04-04T06:59:22.762Z,7.50
2019-04-04T07:01:52.090Z,7.50
2019-04-04T07:04:21.673Z,7.50
2019-04-04T07:06:51.376Z,7.60
2019-04-04T07:09:20.697Z,7.60
2019-04-04T07:11:49.717Z,7.60
2019-04-04T07:14:18.881Z,7.70
2019-04-04T07:16:47.971Z,7.90
2019-04-04T07:19:18.028Z,8.40
2019-04-04T07:22:06.644Z,8.30
2019-04-04T07:24:36.249Z,8.20
2019-04-04T07:27:05.381Z,8.10
2019-04-04T07:29:56.574Z,8.10
2019-04-04T07:32:24.516Z,8.20
2019-04-04T07:34:53.921Z,8.30
2019-04-04T07:37:24.145Z,8.40
2019-04-04T07:39:53.255Z,8.40
2019-04-04T07:42:22.737Z,8.50
2019-04-04T07:44:54.382Z,8.50
2019-04-04T07:47:22.860Z,8.50
2019-04-04T07:49:53.204Z,8.50
2019-04-04T07:52:22.967Z,8.60
2019-04-04T07:54:52.736Z,8.60
2019-04-04T07:57:24.245Z,8.60
2019-04-04T07:59:53.453Z,8.60
2019-04-04T08:02:22.533Z,8.80
2019-04-04T08:04:51.662Z,8.80
2019-04-04T08:07:21.693Z,8.80
2019-04-04T08:09:50.819Z,8.70
2019-04-04T08:12:21.266Z,8.60
2019-04-04T08:15:09.537Z,8.50
2019-04-04T08:17:42.353Z,8.50
2019-04-04T08:20:12.299Z,8.50
2019-04-04T08:22:41.489Z,8.50
2019-04-04T08:25:11.631Z,8.60
2019-04-04T08:27:42.594Z,8.60
2019-04-04T08:30:12.334Z,8.70
2019-04-04T08:32:42.057Z,8.70
2019-04-04T08:35:11.365Z,8.80
2019-04-04T08:37:40.977Z,8.80
2019-04-04T08:40:10.387Z,8.80
2019-04-04T08:42:39.794Z,8.70
2019-04-04T08:45:08.957Z,8.80
2019-04-04T08:47:38.141Z,8.90
2019-04-04T08:50:07.444Z,8.90
2019-04-04T08:52:36.619Z,8.90
2019-04-04T08:55:06.377Z,8.90
2019-04-04T08:57:36.124Z,8.90
2019-04-04T09:00:07.594Z,8.90
2019-04-04T09:02:37.034Z,8.90
2019-04-04T09:05:12.157Z,8.90
2019-04-04T09:07:37.939Z,8.90
2019-04-04T09:10:09.709Z,9.00
2019-04-04T09:12:38.791Z,9.00
2019-04-04T09:15:09.492Z,9.00
2019-04-04T09:17:38.641Z,9.00
2019-04-04T09:20:11.662Z,8.90
2019-04-04T09:22:41.182Z,9.10
2019-04-04T09:25:10.866Z,9.20
2019-04-04T09:27:40.128Z,9.30
2019-04-04T09:30:29.505Z,9.30
2019-04-04T09:32:58.958Z,9.30
2019-04-04T09:35:28.041Z,9.10
2019-04-04T09:38:00.662Z,9.00
2019-04-04T09:40:30.245Z,9.00
2019-04-04T09:45:35.613Z,9.10
2019-04-04T09:48:04.766Z,9.10
2019-04-04T09:50:33.821Z,9.00
2019-04-04T09:53:03.309Z,9.10
2019-04-04T09:55:32.477Z,9.10
2019-04-04T09:58:02.033Z,8.90
2019-04-04T10:00:31.563Z,9.00
2019-04-04T10:03:00.877Z,9.00
2019-04-04T10:05:30.143Z,9.00
2019-04-04T10:07:59.364Z,9.00
2019-04-04T10:10:28.550Z,8.90
2019-04-04T10:12:57.777Z,9.00
2019-04-04T10:15:27.210Z,9.10
2019-04-04T10:17:56.413Z,8.90
2019-04-04T10:20:26.428Z,8.90
2019-04-04T10:22:55.816Z,9.00
2019-04-04T10:25:25.279Z,9.10
2019-04-04T10:27:54.640Z,9.00
2019-04-04T10:30:23.984Z,9.20
2019-04-04T10:32:53.085Z,9.40
2019-04-04T10:35:22.224Z,9.40
2019-04-04T10:37:51.476Z,9.40
2019-04-04T10:40:24.284Z,9.40
2019-04-04T10:42:53.646Z,9.50
2019-04-04T10:45:22.777Z,9.60
2019-04-04T10:47:52.016Z,9.60
2019-04-04T10:50:21.223Z,9.50
2019-04-04T10:52:50.828Z,9.40
2019-04-04T10:55:20.292Z,9.70
2019-04-04T10:58:08.605Z,9.70
2019-04-04T11:00:37.804Z,9.50
2019-04-04T11:03:07.142Z,9.40
2019-04-04T11:05:36.251Z,9.50
2019-04-04T11:08:08.889Z,9.50
2019-04-04T11:10:38.341Z,9.50
2019-04-04T11:13:07.781Z,9.50
2019-04-04T11:15:36.985Z,9.60
2019-04-04T11:18:07.401Z,9.70
2019-04-04T11:20:36.620Z,9.80
2019-04-04T11:23:25.041Z,9.70
2019-04-04T11:25:55.210Z,9.50
2019-04-04T11:28:25.479Z,9.50
2019-04-04T11:30:54.560Z,9.40
2019-04-04T11:33:23.656Z,9.40
2019-04-04T11:35:53.115Z,9.30
2019-04-04T11:38:22.900Z,9.30
2019-04-04T11:40:51.977Z,9.20
2019-04-04T11:43:21.185Z,9.20
2019-04-04T11:45:51.084Z,9.00
2019-04-04T11:48:20.517Z,9.00
2019-04-04T11:53:25.606Z,9.20
2019-04-04T11:55:54.893Z,9.30
2019-04-04T11:58:43.124Z,9.50
2019-04-04T12:01:12.804Z,9.60
2019-04-04T12:03:42.256Z,9.80
2019-04-04T12:06:12.856Z,9.70
2019-04-04T12:08:42.057Z,9.70
2019-04-04T12:11:11.277Z,9.80
2019-04-04T12:13:40.388Z,9.80
2019-04-04T12:16:25.039Z,9.80
2019-04-04T12:18:54.498Z,9.80
2019-04-04T12:21:23.987Z,9.80
2019-04-04T12:23:53.365Z,9.70
2019-04-04T12:26:22.471Z,9.60
2019-04-04T12:28:52.434Z,9.50
2019-04-04T12:31:23.060Z,9.70
2019-04-04T12:33:52.821Z,9.90
2019-04-04T12:36:24.742Z,9.90
2019-04-04T12:38:54.460Z,10.00
2019-04-04T12:41:23.614Z,9.90
2019-04-04T12:43:52.957Z,9.90
2019-04-04T12:46:22.049Z,9.90
2019-04-04T12:48:51.489Z,9.90
2019-04-04T12:51:20.593Z,10.00
2019-04-04T12:53:51.162Z,10.00
2019-04-04T12:56:20.663Z,10.00
2019-04-04T12:58:49.917Z,10.10
2019-04-04T13:01:21.295Z,10.20
2019-04-04T13:03:51.491Z,10.10
2019-04-04T13:06:20.858Z,10.10
2019-04-04T13:08:49.985Z,10.00
2019-04-04T13:11:19.172Z,10.00
2019-04-04T13:13:48.326Z,10.00
2019-04-04T13:16:17.465Z,10.00
2019-04-04T13:18:50.576Z,9.70
2019-04-04T13:21:21.484Z,9.60
2019-04-04T13:23:50.704Z,9.40
2019-04-04T13:26:19.835Z,9.40
2019-04-04T13:28:49.081Z,9.40
2019-04-04T13:31:18.461Z,9.20
2019-04-04T13:33:47.563Z,9.10
2019-04-04T13:36:21.057Z,9.00
2019-04-04T13:38:50.128Z,8.80
2019-04-04T13:41:22.294Z,8.80
2019-04-04T13:43:51.480Z,8.80
2019-04-04T13:46:29.226Z,8.80
2019-04-04T13:48:56.764Z,8.60
2019-04-04T13:51:26.949Z,8.70
2019-04-04T13:53:56.071Z,8.70
2019-04-04T13:56:25.504Z,8.80
2019-04-04T13:58:54.621Z,8.90
2019-04-04T14:01:25.351Z,8.90
2019-04-04T14:03:55.496Z,8.80
2019-04-04T14:06:25.041Z,8.80
2019-04-04T14:08:54.477Z,8.90
2019-04-04T14:11:24.060Z,8.90
2019-04-04T14:13:53.215Z,9.00
2019-04-04T14:16:22.465Z,9.00
2019-04-04T14:18:54.874Z,8.90
2019-04-04T14:21:24.106Z,8.80
2019-04-04T14:23:53.220Z,8.90
2019-04-04T14:26:22.423Z,8.90
2019-04-04T14:28:51.773Z,8.90
2019-04-04T14:31:22.513Z,8.90
2019-04-04T14:33:51.600Z,8.90
2019-04-04T14:36:21.169Z,8.90
2019-04-04T14:38:50.533Z,8.90
2019-04-04T14:41:19.628Z,8.90
2019-04-04T14:43:48.670Z,8.90
2019-04-04T14:46:17.781Z,8.90
2019-04-04T14:48:46.861Z,9.00
2019-04-04T14:51:16.009Z,9.00
2019-04-04T14:53:45.174Z,8.90
2019-04-04T14:56:14.328Z,8.90
2019-04-04T14:58:48.569Z,8.90
2019-04-04T15:01:18.209Z,8.90
2019-04-04T15:03:49.223Z,8.90
2019-04-04T15:06:18.367Z,9.00
2019-04-04T15:08:48.540Z,8.90
2019-04-04T15:11:24.012Z,8.90
2019-04-04T15:13:48.746Z,8.80
2019-04-04T15:16:18.938Z,8.90
2019-04-04T15:18:48.413Z,8.90
2019-04-04T15:21:17.918Z,8.90
2019-04-04T15:23:47.040Z,9.00
2019-04-04T15:26:20.278Z,9.10
2019-04-04T15:28:50.952Z,9.20
2019-04-04T15:31:20.273Z,9.30
2019-04-04T15:33:50.587Z,9.40
2019-04-04T15:36:19.804Z,9.50
2019-04-04T15:38:48.938Z,9.50
2019-04-04T15:41:18.089Z,9.30
2019-04-04T15:43:47.165Z,9.20
2019-04-04T15:46:16.501Z,9.30
2019-04-04T15:48:45.741Z,9.40
2019-04-04T15:51:15.037Z,9.40
2019-04-04T15:53:44.396Z,9.50
2019-04-04T15:56:13.696Z,9.50
2019-04-04T15:58:43.541Z,9.40
2019-04-04T16:01:12.797Z,9.20
2019-04-04T16:03:42.121Z,9.20
2019-04-04T16:06:11.806Z,9.30
2019-04-04T16:08:41.169Z,9.40
2019-04-04T16:11:10.250Z,9.30
2019-04-04T16:13:39.405Z,9.30
2019-04-04T16:16:08.974Z,9.30
2019-04-04T16:18:38.419Z,9.30
2019-04-04T16:21:07.555Z,9.20
2019-04-04T16:23:36.704Z,9.30
2019-04-04T16:26:06.180Z,9.30
2019-04-04T16:28:35.699Z,9.30
2019-04-04T16:31:06.287Z,9.30
2019-04-04T16:36:10.735Z,9.30
2019-04-04T16:38:39.863Z,9.10
2019-04-04T16:41:09.136Z,9.00
2019-04-04T16:43:38.384Z,9.00
2019-04-04T16:46:07.905Z,9.10
2019-04-04T16:48:37.353Z,9.10
2019-04-04T16:51:11.004Z,9.10
2019-04-04T16:53:40.549Z,9.20
2019-04-04T16:56:09.685Z,9.20
2019-04-04T16:58:39.066Z,9.10
2019-04-04T17:01:08.216Z,9.10
2019-04-04T17:03:37.385Z,9.00
2019-04-04T17:06:06.513Z,9.00
2019-04-04T17:08:35.876Z,9.00
2019-04-04T17:11:05.157Z,8.90
2019-04-04T17:13:35.106Z,8.80
2019-04-04T17:16:04.372Z,8.70
2019-04-04T17:18:33.671Z,8.70
2019-04-04T17:21:02.977Z,8.70
2019-04-04T17:23:32.369Z,8.70
2019-04-04T17:26:02.105Z,8.60
2019-04-04T17:28:31.301Z,8.60
2019-04-04T17:31:01.212Z,8.50
2019-04-04T17:33:30.966Z,8.40
2019-04-04T17:36:00.341Z,8.30
2019-04-04T17:38:29.705Z,8.30
2019-04-04T17:40:59.164Z,8.20
2019-04-04T17:43:29.257Z,8.10
2019-04-04T17:45:58.733Z,8.10
2019-04-04T17:48:28.443Z,8.10
2019-04-04T17:50:58.921Z,8.10
2019-04-04T17:53:28.534Z,8.10
2019-04-04T17:56:02.125Z,8.10
2019-04-04T17:58:32.353Z,8.10
2019-04-04T18:01:01.664Z,8.10
2019-04-04T18:03:30.781Z,8.00
2019-04-04T18:05:59.931Z,7.90
2019-04-04T18:08:29.002Z,7.90
2019-04-04T18:10:58.372Z,7.90
2019-04-04T18:13:28.459Z,7.90
2019-04-04T18:15:57.835Z,7.80
2019-04-04T18:18:28.704Z,7.60
2019-04-04T18:20:57.859Z,7.70
2019-04-04T18:23:27.346Z,7.70
2019-04-04T18:25:58.645Z,7.70
2019-04-04T18:28:27.819Z,7.70
2019-04-04T18:30:56.950Z,7.60
2019-04-04T18:33:26.385Z,7.60
2019-04-04T18:35:56.054Z,7.50
2019-04-04T18:38:25.305Z,7.40
2019-04-04T18:40:54.388Z,7.40
2019-04-04T18:43:24.225Z,7.50
2019-04-04T18:45:53.760Z,7.50
2019-04-04T18:48:22.920Z,7.50
2019-04-04T18:50:52.586Z,7.60
2019-04-04T18:53:22.201Z,7.60
2019-04-04T18:55:51.322Z,7.50
2019-04-04T18:58:21.281Z,7.40
2019-04-04T19:00:50.692Z,7.30
2019-04-04T19:03:20.305Z,7.30
2019-04-04T19:05:49.725Z,7.20
2019-04-04T19:08:18.957Z,7.10
2019-04-04T19:10:48.701Z,7.10
2019-04-04T19:13:17.908Z,7.00
2019-04-04T19:15:47.137Z,6.90
2019-04-04T19:18:17.012Z,6.90
2019-04-04T19:20:46.108Z,6.80
2019-04-04T19:23:15.175Z,6.70
2019-04-04T19:25:44.284Z,6.60
2019-04-04T19:28:13.440Z,6.60
2019-04-04T19:30:43.149Z,6.60
2019-04-04T19:33:43.918Z,6.60
2019-04-04T19:36:13.989Z,6.60
2019-04-04T19:38:43.418Z,6.60
2019-04-04T19:41:12.620Z,6.50
2019-04-04T19:43:42.173Z,6.50
2019-04-04T19:46:11.334Z,6.50
2019-04-04T19:48:40.863Z,6.50
2019-04-04T19:51:10.043Z,6.50
2019-04-04T19:53:39.688Z,6.40
2019-04-04T19:56:08.922Z,6.30
2019-04-04T19:58:38.036Z,6.30
2019-04-04T20:01:07.433Z,6.50
2019-04-04T20:03:36.948Z,6.50
2019-04-04T20:06:06.207Z,6.50
2019-04-04T20:08:35.300Z,6.40
2019-04-04T20:11:06.068Z,6.30
2019-04-04T20:13:35.157Z,6.20
2019-04-04T20:16:04.349Z,6.20
2019-04-04T20:18:33.534Z,6.20
2019-04-04T20:21:02.784Z,6.20
2019-04-04T20:23:31.882Z,6.10
2019-04-04T20:26:01.070Z,6.20
2019-04-04T20:28:30.144Z,6.20
2019-04-04T20:30:59.605Z,6.20
2019-04-04T20:33:28.701Z,6.20
2019-04-04T20:35:58.217Z,6.20
2019-04-04T20:38:27.893Z,6.20
2019-04-04T20:40:57.328Z,6.20
2019-04-04T20:43:26.537Z,6.10
2019-04-04T20:45:55.676Z,6.00
2019-04-04T20:48:25.433Z,6.00
2019-04-04T20:50:55.104Z,6.20
2019-04-04T20:53:24.583Z,6.20
2019-04-04T20:55:54.188Z,6.20
2019-04-04T20:58:23.896Z,6.20
2019-04-04T21:00:53.069Z,6.20
2019-04-04T21:03:23.125Z,6.20
2019-04-04T21:05:52.560Z,6.20
2019-04-04T21:10:57.497Z,6.10
2019-04-04T21:13:26.596Z,6.10
2019-04-04T21:15:56.094Z,6.00
2019-04-04T21:18:27.021Z,6.00
2019-04-04T21:20:56.497Z,6.00
2019-04-04T21:23:25.684Z,6.00
2019-04-04T21:25:54.880Z,6.10
2019-04-04T21:28:24.267Z,6.20
2019-04-04T21:30:53.481Z,6.40
2019-04-04T21:33:22.678Z,6.50
2019-04-04T21:35:52.194Z,6.50
2019-04-04T21:38:21.665Z,6.40
2019-04-04T21:40:51.237Z,6.30
2019-04-04T21:43:20.383Z,6.30
2019-04-04T21:45:49.476Z,6.30
2019-04-04T21:48:18.688Z,6.30
2019-04-04T21:53:23.198Z,6.20
2019-04-04T21:55:53.245Z,6.20
2019-04-04T21:58:24.125Z,6.20
2019-04-04T22:00:55.875Z,6.20
2019-04-04T22:03:25.469Z,6.20
2019-04-04T22:05:54.615Z,6.30
2019-04-04T22:08:24.073Z,6.30
2019-04-04T22:10:53.575Z,6.30
2019-04-04T22:13:22.718Z,6.20
2019-04-04T22:15:51.917Z,6.20
2019-04-04T22:18:21.358Z,6.20
2019-04-04T22:20:50.601Z,6.20
2019-04-04T22:23:19.766Z,6.10
2019-04-04T22:25:49.204Z,6.00
2019-04-04T22:28:19.210Z,6.00
2019-04-04T22:30:49.097Z,5.90
2019-04-04T22:33:18.330Z,5.90
2019-04-04T22:35:47.585Z,6.00
2019-04-04T22:38:16.753Z,5.90
2019-04-04T22:40:46.218Z,5.80
2019-04-04T22:43:15.304Z,5.70
2019-04-04T22:45:44.848Z,5.70
2019-04-04T22:48:13.980Z,5.80
2019-04-04T22:50:43.061Z,5.80
2019-04-04T22:53:12.873Z,5.80
2019-04-04T22:55:43.808Z,5.80
2019-04-04T22:58:28.185Z,5.80
2019-04-04T23:00:52.416Z,5.70
2019-04-04T23:03:22.794Z,5.60
2019-04-04T23:05:52.525Z,5.60
2019-04-04T23:08:21.652Z,5.70
2019-04-04T23:10:50.806Z,5.80
2019-04-04T23:13:19.925Z,5.70
2019-04-04T23:15:49.088Z,5.60
2019-04-04T23:18:18.449Z,5.50
2019-04-04T23:20:47.596Z,5.40
2019-04-04T23:23:17.308Z,5.30
2019-04-04T23:25:46.829Z,5.40
2019-04-04T23:28:15.963Z,5.50
2019-04-04T23:30:45.620Z,5.50
2019-04-04T23:33:15.238Z,5.60
2019-04-04T23:35:44.458Z,5.70
2019-04-04T23:38:13.845Z,5.60
2019-04-04T23:40:42.956Z,5.60
2019-04-04T23:43:12.032Z,5.60
2019-04-04T23:45:41.481Z,5.60
2019-04-04T23:48:29.778Z,5.60
2019-04-04T23:50:58.972Z,5.70
2019-04-04T23:53:28.160Z,5.80
2019-04-04T23:55:57.256Z,5.80
2019-04-04T23:58:26.361Z,5.80
